EmailTwitter


Observations de surface / Québec / CYUL (71627)

Régions: Québec | Canada | États-Unis | Europe | France | UK | Elsewhere
Station
Affichage
Infos & localisation pour CYUL (71627) | Aide pour décoder les METARs

Observations prises le 2017-03-30 à 04H00 UTC à MONTREAL INTL A, QB (CYUL)

Etat du ciel: couvert.

Température: 3.0 Celsius

Point de rosée: -8.0 Celsius

Humidité relative: 44%

Facteur vent: 0.

Vents: Nord-nord-ouest à 11 km/h ou 6 noeuds.

Pression au niveau moyen de la mer: 102.56 kilopascals.

Calage altimétrique: 102.54 kilopascals ou 30.28 pouces de mercure.

Visibilité horizontale: 15.00 milles terrestres ou 24.00 kilomètres.

Hauteur du plafond: 1676 mètres ( 5500 pieds ).

Observation METAR:

CYUL 300400Z 34006KT 300V360 15SM OVC055 03/M08 A3028 RMK SC8 SLP256=